Impacts METAR Board
IDs:

KTPA - Tampa Intl Arpt, FL, US

Updated at: 0600 UTC 20 Oct 2018
Potential Impact None Slight Moderate High
Time 19/18Z 19/19Z 19/20Z 19/21Z 19/22Z 19/23Z 20/00Z 20/01Z 20/02Z 20/03Z 20/04Z 20/05Z 20/06Z
Temp88 85 88 88 86 79 79 80 80 78 78 76 76
Dewpt72 72 72 71 73 73 74 72 72 72 72 72 72
Altim30.13 30.11 30.09 30.08 30.07 30.09 30.10 30.11 30.12 30.11 30.11 30.10 30.09
VIS9 9 10 9 10 10 10 10 10 10 10 10 10
CIG-- 42 42 45 48 48 60 47 85 -- -- -- --
CoverSCTBKNBKNBKNBKNBKNOVCBKNBKNFEWSCTSCTFEW
FltCatVFRVFRVFRVFRVFRVFRVFRVFRVFRVFRVFRVFRVFR
WX---------RA-RA--------------
WDir24025025027031035034040030503030
WSpd5 8 7 8 10 7 3 4 0 4 3 4 6
WGst-- -- -- -- -- -- -- -- -- -- -- -- --
Raw hourly METARs
KTPA 191753Z 24005KT 9SM SCT040 31/22 A3013 RMK AO2 SLP204 T03110222 10311 20239 58026
KTPA 191853Z 25008KT 9SM BKN042 29/22 A3011 RMK AO2 SLP195 CU BLDG ALQDS T02940222
KTPA 191953Z 25007KT 10SM R01L/4000VP6000FT BKN042TCU 31/22 A3009 RMK AO2 SLP188 TCU NW-E T03110222
KTPA 192053Z 27008KT 9SM BKN045TCU 31/22 A3008 RMK AO2 SLP184 TCU W-E T03110217 56020
KTPA 192153Z 31010KT 10SM -RA BKN048TCU 30/23 A3007 RMK AO2 RAB42 SLP182 TCU W-SE P0000 T03000228
KTPA 192253Z 35007KT 10SM -RA BKN048TCU 26/23 A3009 RMK AO2 RAE04B45 SLP189 TCU S AND NW PCPN INTMT AND VRY LGT P0000 T02610228
KTPA 192353Z COR 34003KT 10SM FEW034CB OVC060 26/23 A3010 RMK AO2 RAE12 SLP191 CB S MOV W P0000 60000 T02610233 10317 20256 53007
KTPA 200053Z 04004KT 10SM BKN047 BKN080 27/22 A3011 RMK AO2 SLP196 T02670222
KTPA 200153Z 00000KT 10SM BKN085 27/22 A3012 RMK AO2 SLP197 T02670222
KTPA 200253Z 03004KT 10SM FEW090 26/22 A3011 RMK AO2 SLP197 T02560222 50006
KTPA 200353Z 05003KT 10SM SCT080 26/22 A3011 RMK AO2 SLP196 T02560222
KTPA 200453Z 03004KT 10SM SCT080 24/22 A3010 RMK AO2 SLP193 T02440222 403170239
KTPA 200553Z 03006KT 10SM FEW080 24/22 A3009 RMK AO2 SLP190 T02440222 10272 20244 58007



Page loaded:  06:18 UTC  |   11:18 PM Pacific  |   12:18 AM Mountain  |   01:18 AM Central  |   02:18 AM Eastern

 

ADVISORIES

FORECASTS

FORECASTS

OBSERVATIONS

USER TOOLS

ABOUT US